Time;durP1;ratioP1;P1;durP2;ratioP2;P2;SDS_P1;SDS_P2;PMS_P1;PMS_P2;Temp;Humidity;BMP_temperature;BMP_pressure;BME280_temperature;BME280_humidity;BME280_pressure;Samples;Min_cycle;Max_cycle;Signal;HPM_P1;HPM_P2
2021/01/26 00:01:27;;;;;;;28.20;17.52;;;;;;;-1.88;92.18;99798.84;5097734;28;20020;-79
2021/01/26 00:03:52;;;;;;;32.10;17.50;;;;;;;-1.89;93.07;99799.66;5095933;28;20069;-79
2021/01/26 00:06:18;;;;;;;26.85;16.23;;;;;;;-1.87;92.84;99796.34;5096346;28;20024;-79
2021/01/26 00:08:43;;;;;;;30.55;18.23;;;;;;;-1.83;92.37;99797.25;5095884;28;20077;-79
2021/01/26 00:11:08;;;;;;;29.90;17.33;;;;;;;-1.89;92.76;99804.75;5097099;28;20031;-79
2021/01/26 00:13:34;;;;;;;27.33;17.08;;;;;;;-2.03;92.66;99796.00;5096194;28;20360;-79
2021/01/26 00:16:00;;;;;;;29.35;16.42;;;;;;;-1.92;93.16;99800.47;5096281;28;20066;-79
2021/01/26 00:18:25;;;;;;;27.60;17.13;;;;;;;-1.89;92.78;99797.13;5097813;28;20024;-79
2021/01/26 00:20:51;;;;;;;27.30;15.40;;;;;;;-1.79;93.10;99801.56;5097281;28;20020;-79
2021/01/26 00:23:17;;;;;;;26.08;16.45;;;;;;;-1.96;92.67;99808.00;5098139;28;20020;-79
2021/01/26 00:25:43;;;;;;;26.75;17.90;;;;;;;-1.92;92.72;99800.47;5095925;28;20024;-79
2021/01/26 00:28:12;;;;;;;27.60;16.95;;;;;;;-2.11;93.10;99804.31;5095612;28;20024;-79
2021/01/26 00:30:38;;;;;;;30.08;17.70;;;;;;;-2.20;93.66;99806.66;5096065;28;20020;-79
2021/01/26 00:33:17;;;;;;;30.20;18.70;;;;;;;-2.28;93.59;99810.72;5095397;28;20032;-79
2021/01/26 00:35:43;;;;;;;28.52;18.38;;;;;;;-2.46;94.10;99811.22;5096997;28;20094;-79
2021/01/26 00:38:09;;;;;;;34.58;19.63;;;;;;;-2.58;94.91;99803.31;5095726;28;20046;-79
2021/01/26 00:40:34;;;;;;;31.27;19.05;;;;;;;-2.55;94.77;99805.94;5095300;28;20020;-79
2021/01/26 00:43:00;;;;;;;33.25;19.55;;;;;;;-2.61;95.04;99816.78;5095265;28;20042;-79
2021/01/26 00:45:27;;;;;;;30.55;19.88;;;;;;;-2.56;95.24;99810.13;5095353;28;20066;-79
2021/01/26 00:47:52;;;;;;;31.73;17.88;;;;;;;-2.52;94.99;99815.25;5097266;28;20456;-79
2021/01/26 00:50:19;;;;;;;32.67;20.30;;;;;;;-2.51;95.05;99817.84;5094926;28;20073;-79
2021/01/26 00:52:45;;;;;;;32.90;20.23;;;;;;;-2.50;94.89;99809.41;5095502;28;20077;-79
2021/01/26 00:55:11;;;;;;;31.85;19.48;;;;;;;-2.54;94.63;99817.78;5096604;28;20024;-79
2021/01/26 00:57:38;;;;;;;33.20;19.15;;;;;;;-2.38;94.63;99821.50;5095462;28;20046;-79
2021/01/26 01:00:14;;;;;;;37.55;19.90;;;;;;;-2.52;94.86;99812.72;5095326;28;20411;-79
2021/01/26 01:02:39;;;;;;;30.35;18.58;;;;;;;-2.43;94.67;99815.47;5096330;28;20031;-80
2021/01/26 01:05:06;;;;;;;33.58;19.25;;;;;;;-2.40;94.61;99813.00;5096432;28;20537;-79
2021/01/26 01:07:32;;;;;;;30.10;18.63;;;;;;;-2.35;94.94;99813.97;5096195;28;20020;-79
2021/01/26 01:09:57;;;;;;;30.65;19.20;;;;;;;-2.23;94.42;99819.31;5094985;28;20043;-79
2021/01/26 01:12:22;;;;;;;34.58;19.17;;;;;;;-2.26;94.21;99813.31;5094769;28;20507;-79
2021/01/26 01:14:47;;;;;;;30.80;18.83;;;;;;;-2.17;93.42;99816.91;5096411;28;20024;-80
2021/01/26 01:17:13;;;;;;;30.85;19.20;;;;;;;-2.19;93.72;99820.22;5096124;28;20022;-79
2021/01/26 01:19:38;;;;;;;34.17;19.17;;;;;;;-2.36;93.98;99827.50;5096645;28;20031;-79
2021/01/26 01:22:04;;;;;;;34.88;18.45;;;;;;;-2.37;94.13;99819.03;5094711;28;20078;-79
2021/01/26 01:24:29;;;;;;;29.85;19.23;;;;;;;-2.38;94.30;99824.06;5094828;28;20038;-79
2021/01/26 01:26:55;;;;;;;33.17;19.90;;;;;;;-2.50;94.14;99823.78;5094413;28;20023;-79
2021/01/26 01:29:20;;;;;;;36.40;19.92;;;;;;;-2.60;94.77;99823.56;5096197;28;20034;-79
2021/01/26 01:31:45;;;;;;;37.42;20.58;;;;;;;-2.70;94.90;99826.72;5094394;28;20024;-79
2021/01/26 01:34:10;;;;;;;31.15;18.70;;;;;;;-2.76;94.95;99820.66;5095834;28;20447;-79
2021/01/26 01:36:37;;;;;;;32.42;20.10;;;;;;;-2.78;95.07;99821.47;5095703;28;20027;-79
2021/01/26 01:39:04;;;;;;;35.92;22.50;;;;;;;-2.83;95.41;99824.75;5094815;28;20066;-79
2021/01/26 01:41:31;;;;;;;33.40;20.63;;;;;;;-2.86;95.59;99825.53;5094703;28;20111;-79
2021/01/26 01:43:56;;;;;;;35.20;20.17;;;;;;;-2.87;95.56;99820.38;5094628;28;20023;-79
2021/01/26 01:46:22;;;;;;;34.10;20.48;;;;;;;-2.89;95.92;99822.06;5093682;28;20491;-79
2021/01/26 01:48:48;;;;;;;36.78;20.70;;;;;;;-2.83;95.78;99822.19;5095565;28;20028;-79
2021/01/26 01:51:17;;;;;;;38.17;22.33;;;;;;;-2.95;95.76;99816.84;5096035;28;20050;-79
2021/01/26 01:53:51;;;;;;;37.92;21.70;;;;;;;-2.96;95.95;99823.56;5094308;28;20455;-79
2021/01/26 01:56:39;;;;;;;35.50;21.13;;;;;;;-2.86;96.24;99825.53;5100400;28;20028;-79
2021/01/26 01:59:10;;;;;;;37.15;21.08;;;;;;;-2.94;95.91;99818.53;5105423;28;20030;-79
2021/01/26 02:01:36;;;;;;;31.95;19.90;;;;;;;-2.94;96.22;99816.00;5096844;28;20024;-79
2021/01/26 02:04:07;;;;;;;38.08;22.42;;;;;;;-2.95;96.08;99821.91;5093820;28;20020;-79
2021/01/26 02:06:34;;;;;;;38.88;20.92;;;;;;;-2.99;96.16;99827.72;5094184;28;20031;-79
2021/01/26 02:09:05;;;;;;;37.88;20.60;;;;;;;-2.96;96.31;99822.72;5095054;28;20020;-79
2021/01/26 02:11:30;;;;;;;38.92;22.67;;;;;;;-2.99;96.56;99822.63;5095255;28;20395;-79
2021/01/26 02:13:56;;;;;;;38.78;20.70;;;;;;;-3.06;96.42;99825.03;5093994;28;20119;-79
2021/01/26 02:16:24;;;;;;;37.03;21.55;;;;;;;-3.01;96.43;99822.59;5093705;28;20024;-79
2021/01/26 02:19:11;;;;;;;38.47;21.33;;;;;;;-2.98;96.50;99826.91;5093543;28;20452;-78
2021/01/26 02:22:10;;;;;;;37.17;21.38;;;;;;;-3.08;96.55;99829.22;5093603;28;20384;-78
2021/01/26 02:25:24;;;;;;;34.97;20.33;;;;;;;-3.15;96.35;99834.94;5093224;28;20027;-78
2021/01/26 02:28:31;;;;;;;37.65;20.65;;;;;;;-3.29;96.50;99833.75;5093594;28;20016;-79
2021/01/26 02:31:11;;;;;;;37.03;21.05;;;;;;;-3.37;96.89;99836.06;5093606;28;20026;-79
2021/01/26 02:34:14;;;;;;;36.33;20.45;;;;;;;-3.43;97.07;99835.06;5094590;28;20077;-78
2021/01/26 02:36:53;;;;;;;34.38;20.35;;;;;;;-3.50;97.14;99839.13;5094611;28;20030;-79
2021/01/26 02:39:43;;;;;;;33.78;21.17;;;;;;;-3.42;97.24;99851.97;5093236;28;20051;-79
2021/01/26 02:42:36;;;;;;;40.15;21.52;;;;;;;-3.20;97.41;99849.19;5094312;28;20047;-78
2021/01/26 02:45:46;;;;;;;44.90;22.27;;;;;;;-3.10;97.27;99857.91;5093399;28;20030;-78
2021/01/26 02:48:30;;;;;;;38.70;22.02;;;;;;;-2.97;97.32;99862.44;5078481;28;20551;-78
2021/01/26 02:51:08;;;;;;;40.65;23.20;;;;;;;-2.90;96.55;99861.75;5093288;28;20034;-78
2021/01/26 02:53:55;;;;;;;43.05;22.95;;;;;;;-2.79;96.64;99862.03;5093177;28;20506;-78
2021/01/26 02:56:30;;;;;;;42.45;22.52;;;;;;;-2.70;96.66;99869.03;5092906;28;20491;-78
2021/01/26 02:59:02;;;;;;;39.75;22.70;;;;;;;-2.65;96.54;99864.91;5093183;28;20075;-78
2021/01/26 03:01:38;;;;;;;44.35;23.73;;;;;;;-2.57;96.25;99861.72;5093335;28;20098;-78
2021/01/26 03:04:07;;;;;;;36.72;22.40;;;;;;;-2.36;95.46;99871.50;5094723;28;20023;-78
2021/01/26 03:06:34;;;;;;;39.67;21.65;;;;;;;-2.31;95.25;99871.59;5093210;28;20031;-78
2021/01/26 03:09:08;;;;;;;37.08;21.05;;;;;;;-2.21;95.25;99872.69;5094480;28;20016;-79
2021/01/26 03:11:44;;;;;;;38.87;21.47;;;;;;;-2.14;94.57;99877.94;5093325;28;20023;-79
2021/01/26 03:14:31;;;;;;;33.70;21.05;;;;;;;-2.17;94.90;99874.47;5092982;28;20024;-78
2021/01/26 03:17:07;;;;;;;32.80;21.02;;;;;;;-2.19;95.42;99871.03;5094969;28;20073;-79
2021/01/26 03:19:36;;;;;;;36.95;22.02;;;;;;;-2.18;95.01;99873.59;5094465;28;20035;-79
2021/01/26 03:22:03;;;;;;;37.13;20.92;;;;;;;-2.24;94.78;99878.56;5093426;28;20024;-79
2021/01/26 03:24:35;;;;;;;36.65;22.92;;;;;;;-2.22;95.37;99871.81;5094538;28;20035;-79
2021/01/26 03:27:05;;;;;;;36.60;21.85;;;;;;;-2.26;95.38;99880.19;5094617;28;20020;-79
2021/01/26 03:29:34;;;;;;;35.15;21.90;;;;;;;-2.14;94.89;99872.00;5093413;28;20020;-79
2021/01/26 03:32:05;;;;;;;39.38;21.05;;;;;;;-2.19;94.70;99876.09;5093137;28;20016;-79
2021/01/26 03:34:32;;;;;;;34.40;21.50;;;;;;;-2.13;95.36;99872.00;5092946;28;20119;-78
2021/01/26 03:36:57;;;;;;;36.00;21.50;;;;;;;-2.11;95.22;99884.75;5093164;28;20031;-78
2021/01/26 03:39:23;;;;;;;37.38;22.50;;;;;;;-2.07;95.14;99889.06;5093077;28;20104;-79
2021/01/26 03:41:48;;;;;;;37.75;23.02;;;;;;;-1.99;94.65;99884.16;5094956;28;20078;-79
2021/01/26 03:44:14;;;;;;;34.65;22.40;;;;;;;-1.91;94.59;99892.78;5093327;28;20068;-79
2021/01/26 03:46:53;;;;;;;34.38;22.50;;;;;;;-1.98;94.41;99888.41;5095258;28;20395;-79
2021/01/26 03:49:56;;;;;;;36.10;21.65;;;;;;;-1.88;94.85;99891.19;5095378;28;20020;-79
2021/01/26 03:52:45;;;;;;;37.10;21.80;;;;;;;-1.92;94.68;99899.56;5094999;28;20024;-79
2021/01/26 03:55:34;;;;;;;33.47;21.20;;;;;;;-1.96;95.57;99902.03;5094148;28;20039;-78
2021/01/26 03:58:19;;;;;;;36.22;22.17;;;;;;;-1.94;94.96;99900.34;5095326;28;20031;-78
2021/01/26 04:01:08;;;;;;;;;;;;;;;-2.04;95.48;99901.00;5096029;28;20070;-78
2021/01/26 04:03:36;;;;;;;34.40;20.80;;;;;;;-2.11;95.09;99900.84;5092256;28;20022;-78
2021/01/26 04:06:17;;;;;;;35.55;21.88;;;;;;;-2.22;95.77;99906.50;5092812;28;20055;-78
2021/01/26 04:08:49;;;;;;;33.83;20.92;;;;;;;-2.27;96.22;99910.66;5095138;28;20020;-78
2021/01/26 04:11:20;;;;;;;37.10;21.70;;;;;;;-2.36;96.10;99906.22;5096342;28;20464;-78
2021/01/26 04:14:02;;;;;;;42.38;22.42;;;;;;;-2.46;96.41;99912.75;5097209;28;20024;-78
2021/01/26 04:16:34;;;;;;;39.30;22.52;;;;;;;-2.52;96.58;99917.69;5096471;28;20375;-78
2021/01/26 04:19:02;;;;;;;42.28;23.23;;;;;;;-2.56;96.60;99923.50;5096266;28;20408;-78
2021/01/26 04:21:32;;;;;;;38.33;21.80;;;;;;;-2.59;96.52;99926.81;5096512;28;20016;-79
2021/01/26 04:23:58;;;;;;;40.08;22.98;;;;;;;-2.61;96.87;99932.69;5096187;28;20024;-78
2021/01/26 04:26:26;;;;;;;36.00;21.50;;;;;;;-2.64;97.35;99928.41;5097580;28;20400;-78
2021/01/26 04:28:51;;;;;;;37.78;21.88;;;;;;;-2.67;97.28;99933.41;5109543;28;20020;-78
2021/01/26 04:31:19;;;;;;;34.78;20.77;;;;;;;-2.72;97.21;99923.94;5102382;28;20387;-78
2021/01/26 04:33:45;;;;;;;36.85;21.85;;;;;;;-2.81;96.99;99925.44;5095409;28;20545;-78
2021/01/26 04:36:16;;;;;;;44.80;21.98;;;;;;;-2.90;96.92;99924.34;5097111;28;20028;-78
2021/01/26 04:38:41;;;;;;;39.97;22.25;;;;;;;-3.03;97.09;99928.25;5096927;28;20020;-78
2021/01/26 04:41:14;;;;;;;42.88;21.85;;;;;;;-3.02;97.21;99927.41;5095189;28;20093;-78
2021/01/26 04:43:53;;;;;;;41.22;23.73;;;;;;;-2.99;97.66;99926.63;5095457;28;20020;-79
2021/01/26 04:46:30;;;;;;;38.00;21.73;;;;;;;-3.14;97.19;99929.63;5096579;28;20055;-78
2021/01/26 04:49:14;;;;;;;43.08;23.77;;;;;;;-3.25;97.03;99936.97;5096511;28;20059;-78
2021/01/26 04:51:53;;;;;;;39.92;22.23;;;;;;;-3.33;97.34;99933.34;5096849;28;20466;-78
2021/01/26 04:54:36;;;;;;;35.35;21.33;;;;;;;-3.41;97.51;99945.81;5096851;28;20028;-78
2021/01/26 04:57:28;;;;;;;41.45;23.13;;;;;;;-3.40;97.72;99959.34;5096644;28;20111;-78
2021/01/26 05:00:15;;;;;;;42.88;22.17;;;;;;;-3.49;97.80;99965.88;5096495;28;20082;-79
2021/01/26 05:02:57;;;;;;;45.47;23.58;;;;;;;-3.47;98.28;99966.78;5096462;28;20032;-79
2021/01/26 05:05:25;;;;;;;42.50;22.63;;;;;;;-3.49;97.96;99973.47;5096429;28;20042;-78
2021/01/26 05:07:54;;;;;;;48.15;21.10;;;;;;;-3.52;97.84;99977.59;5096558;28;20028;-78
2021/01/26 05:10:30;;;;;;;46.45;23.45;;;;;;;-3.54;97.92;99976.69;5095221;28;20369;-78
2021/01/26 05:13:02;;;;;;;45.72;23.92;;;;;;;-3.55;97.77;99978.38;5096194;28;20463;-78
2021/01/26 05:15:31;;;;;;;42.80;22.98;;;;;;;-3.47;98.00;99971.84;5094894;28;20060;-78
2021/01/26 05:18:09;;;;;;;43.92;23.02;;;;;;;-3.39;97.75;99979.66;5096046;28;20031;-78
2021/01/26 05:20:43;;;;;;;46.13;23.15;;;;;;;-3.39;98.09;99983.88;5093498;28;20096;-78
2021/01/26 05:23:18;;;;;;;44.97;23.63;;;;;;;-3.38;97.71;99990.69;5095890;28;20586;-78
2021/01/26 05:25:43;;;;;;;;;;;;;;;-3.41;97.85;99983.84;5096568;28;20403;-79
2021/01/26 05:28:09;;;;;;;45.58;22.08;;;;;;;-3.41;97.87;99986.38;5096041;28;19944;-79
2021/01/26 05:30:37;;;;;;;44.67;22.80;;;;;;;-3.38;97.71;99991.53;5096636;28;20380;-79
2021/01/26 05:33:10;;;;;;;48.60;24.20;;;;;;;-3.27;98.12;99991.84;5096576;28;20385;-79
2021/01/26 05:35:39;;;;;;;43.63;24.13;;;;;;;-3.12;97.80;99994.78;5094916;28;20537;-79
2021/01/26 05:38:04;;;;;;;38.35;23.33;;;;;;;-3.09;97.78;99994.03;5096243;28;20035;-79
2021/01/26 05:40:39;;;;;;;45.15;24.55;;;;;;;-3.06;97.58;100000.03;5095863;28;20472;-78
2021/01/26 05:43:09;;;;;;;48.90;24.05;;;;;;;-3.06;97.71;100005.09;5095932;28;20369;-78
2021/01/26 05:45:46;;;;;;;47.97;25.45;;;;;;;-2.96;97.51;100005.38;5094657;28;20023;-79
2021/01/26 05:48:14;;;;;;;42.95;24.63;;;;;;;-2.92;97.37;100012.25;5094746;28;20016;-79
2021/01/26 05:50:42;;;;;;;40.20;23.42;;;;;;;-2.90;97.25;100014.00;5094527;28;20051;-79
2021/01/26 05:53:16;;;;;;;39.05;23.80;;;;;;;-2.88;97.11;100014.06;5094062;28;20117;-78
2021/01/26 05:55:47;;;;;;;39.67;23.63;;;;;;;-2.84;96.98;100024.31;5095819;28;20023;-79
2021/01/26 05:58:14;;;;;;;44.72;24.63;;;;;;;-2.84;97.18;100031.91;5094542;28;20024;-79
2021/01/26 06:00:40;;;;;;;40.00;22.90;;;;;;;-2.72;97.46;100026.31;5094051;28;20016;-79
2021/01/26 06:03:08;;;;;;;45.85;23.73;;;;;;;-2.72;97.20;100030.53;5094235;28;20027;-79
2021/01/26 06:05:33;;;;;;;40.72;23.20;;;;;;;-2.65;96.90;100043.44;5094460;28;20019;-79
2021/01/26 06:08:13;;;;;;;37.80;23.38;;;;;;;-2.63;96.79;100051.94;5096275;28;20033;-79
2021/01/26 06:10:42;;;;;;;43.45;24.10;;;;;;;-2.64;96.67;100046.84;5095790;28;20039;-79
2021/01/26 06:13:08;;;;;;;42.00;24.75;;;;;;;-2.57;96.93;100049.56;5095529;28;20020;-79
2021/01/26 06:15:37;;;;;;;43.38;24.40;;;;;;;-2.51;96.63;100066.66;5094068;28;20020;-79
2021/01/26 06:18:19;;;;;;;42.47;24.63;;;;;;;-2.56;96.14;100051.28;5093825;28;20024;-79
2021/01/26 06:21:13;;;;;;;39.92;24.55;;;;;;;-2.65;96.65;100055.25;5094346;28;20119;-79
2021/01/26 06:23:39;;;;;;;38.38;24.17;;;;;;;-2.66;96.17;100045.94;5094357;28;20063;-79
2021/01/26 06:26:10;;;;;;;47.05;25.27;;;;;;;-2.73;96.38;100054.22;5093979;28;20031;-79
2021/01/26 06:29:12;;;;;;;41.08;24.13;;;;;;;-2.83;96.59;100055.66;5093888;28;20020;-79
2021/01/26 06:31:59;;;;;;;40.67;23.38;;;;;;;-2.93;96.63;100062.13;5093992;28;20402;-79
2021/01/26 06:34:50;;;;;;;39.28;24.35;;;;;;;-3.06;96.44;100067.66;5095340;28;20106;-78
2021/01/26 06:37:42;;;;;;;35.97;22.58;;;;;;;-3.09;96.99;100070.13;5094726;28;20087;-79
2021/01/26 06:40:16;;;;;;;37.85;23.90;;;;;;;-2.95;97.11;100073.06;5078940;28;20089;-79
2021/01/26 06:43:03;;;;;;;42.20;25.67;;;;;;;-2.96;96.93;100076.41;5094556;28;20070;-79
2021/01/26 06:45:55;;;;;;;43.00;25.00;;;;;;;-2.95;96.90;100086.59;5094658;28;20440;-79
2021/01/26 06:48:36;;;;;;;42.92;24.73;;;;;;;-3.02;97.31;100083.03;5095783;28;20039;-78
2021/01/26 06:51:22;;;;;;;46.42;26.45;;;;;;;-2.96;97.54;100091.63;5099238;28;20364;-78
2021/01/26 06:53:56;;;;;;;42.58;25.50;;;;;;;-3.20;97.15;100092.66;5107665;28;20028;-78
2021/01/26 06:56:59;;;;;;;47.47;26.90;;;;;;;-3.38;97.41;100098.03;5095557;28;20371;-78
2021/01/26 06:59:52;;;;;;;46.47;24.92;;;;;;;-3.54;97.36;100099.22;5094434;28;20388;-79
2021/01/26 07:02:39;;;;;;;49.17;27.58;;;;;;;-3.59;97.28;100102.44;5094151;28;20023;-79
2021/01/26 07:05:29;;;;;;;46.97;24.77;;;;;;;-3.74;97.21;100105.34;5093708;28;20065;-78
2021/01/26 07:08:28;;;;;;;45.45;25.08;;;;;;;-3.80;97.14;100115.28;5095758;28;20020;-80
2021/01/26 07:11:28;;;;;;;46.70;25.58;;;;;;;-3.91;97.16;100124.19;5093552;28;20533;-79
2021/01/26 07:14:21;;;;;;;47.40;25.38;;;;;;;-3.87;97.21;100121.81;5088695;28;20040;-79
2021/01/26 07:16:56;;;;;;;51.17;25.98;;;;;;;-3.78;97.55;100127.19;5093924;28;20469;-79
2021/01/26 07:19:32;;;;;;;39.97;23.08;;;;;;;-3.88;97.31;100139.50;5093603;28;20024;-79
2021/01/26 07:22:34;;;;;;;40.83;24.15;;;;;;;-3.91;97.15;100140.25;5094715;28;20486;-79
2021/01/26 07:25:19;;;;;;;44.67;26.67;;;;;;;-3.51;97.91;100134.81;5094623;28;20077;-78
2021/01/26 07:28:02;;;;;;;;;;;;;;;-3.25;98.25;100147.44;5093938;28;20544;-80
2021/01/26 07:30:40;;;;;;;42.20;25.88;;;;;;;-3.23;97.64;100145.81;5093363;28;19916;-79
2021/01/26 07:33:36;;;;;;;43.00;25.90;;;;;;;-3.57;97.12;100159.97;5095281;28;20049;-79
2021/01/26 07:36:16;;;;;;;45.17;27.38;;;;;;;-3.73;96.74;100165.31;5094147;28;20024;-80
2021/01/26 07:38:44;;;;;;;40.65;25.35;;;;;;;-3.64;96.96;100164.78;5096282;28;20024;-80
2021/01/26 07:41:22;;;;;;;49.35;27.25;;;;;;;-3.56;96.97;100164.22;5095806;28;20373;-79
2021/01/26 07:44:05;;;;;;;41.78;25.60;;;;;;;-3.71;96.70;100173.84;5094123;28;20027;-78
2021/01/26 07:46:55;;;;;;;47.35;24.30;;;;;;;-3.73;96.50;100175.47;5098553;28;20480;-78
2021/01/26 07:49:37;;;;;;;39.63;24.08;;;;;;;-3.61;96.37;100175.00;5097468;28;20036;-78
2021/01/26 07:52:04;;;;;;;44.28;25.08;;;;;;;-3.47;96.59;100186.47;5096903;28;20058;-78
2021/01/26 07:54:38;;;;;;;47.47;27.25;;;;;;;-3.29;96.40;100188.72;5098259;28;20395;-78
2021/01/26 07:57:05;;;;;;;47.63;27.50;;;;;;;-3.31;96.51;100198.81;5097231;28;20119;-78
2021/01/26 07:59:55;;;;;;;41.78;25.80;;;;;;;-3.09;96.85;100192.72;5100978;28;20034;-78
2021/01/26 08:02:29;;;;;;;43.80;26.95;;;;;;;-3.09;96.00;100192.72;5098472;28;20043;-79
2021/01/26 08:04:55;;;;;;;46.25;27.38;;;;;;;-2.87;96.52;100201.84;5096552;28;20494;-79
2021/01/26 08:07:23;;;;;;;44.53;26.23;;;;;;;-2.83;96.12;100196.06;5096547;28;20118;-79
2021/01/26 08:09:51;;;;;;;46.97;26.52;;;;;;;-2.62;95.56;100205.09;5098278;28;20101;-80
2021/01/26 08:12:20;;;;;;;42.88;25.90;;;;;;;-2.44;94.88;100205.63;5098467;28;20027;-82
2021/01/26 08:14:51;;;;;;;43.42;26.23;;;;;;;-2.32;92.98;100211.06;5101393;28;20545;-81
2021/01/26 08:17:35;;;;;;;43.55;25.92;;;;;;;-2.34;93.70;100219.44;5099302;28;20055;-81
2021/01/26 08:20:05;;;;;;;43.50;25.42;;;;;;;-2.27;93.92;100225.59;5098672;28;20028;-81
2021/01/26 08:22:53;;;;;;;44.53;26.90;;;;;;;-2.21;93.95;100229.16;5100542;28;20035;-81
2021/01/26 08:25:21;;;;;;;41.00;24.83;;;;;;;-1.99;93.66;100225.50;5098763;28;20024;-80
2021/01/26 08:27:46;;;;;;;40.53;26.30;;;;;;;-1.73;92.78;100233.81;5098062;28;20417;-80
2021/01/26 08:30:19;;;;;;;46.07;27.43;;;;;;;-1.11;90.15;100225.16;5099805;28;20032;-80
2021/01/26 08:32:47;;;;;;;39.72;25.13;;;;;;;-1.12;91.00;100228.53;5099396;28;20270;-81
2021/01/26 08:35:21;;;;;;;43.65;26.75;;;;;;;-0.49;89.84;100231.66;5098563;28;20160;-79
2021/01/26 08:37:51;;;;;;;38.22;25.08;;;;;;;-0.70;90.11;100223.56;5096470;28;20032;-79
2021/01/26 08:40:16;;;;;;;38.97;26.30;;;;;;;-0.66;89.87;100230.44;5098246;28;20032;-79
2021/01/26 08:42:41;;;;;;;39.07;24.07;;;;;;;-0.81;89.69;100235.19;5096514;28;20035;-79
2021/01/26 08:45:09;;;;;;;44.75;25.00;;;;;;;-0.82;90.63;100241.97;5098203;28;20312;-79
2021/01/26 08:47:46;;;;;;;40.50;26.05;;;;;;;-0.73;90.26;100238.78;5096891;28;20031;-79
2021/01/26 08:50:35;;;;;;;49.83;28.65;;;;;;;-0.40;90.08;100251.38;5097522;28;20024;-79
2021/01/26 08:53:40;;;;;;;41.22;24.80;;;;;;;-0.61;90.51;100254.34;5096233;28;20491;-79
2021/01/26 08:56:34;;;;;;;35.78;24.55;;;;;;;-0.58;89.68;100253.53;5061787;28;20118;-79
2021/01/26 08:59:01;;;;;;;38.47;24.45;;;;;;;-0.68;90.70;100251.59;5054312;28;20043;-79
2021/01/26 09:01:29;;;;;;;39.95;26.02;;;;;;;-0.98;91.80;100252.63;5082954;28;20028;-79
2021/01/26 09:04:18;;;;;;;41.30;26.27;;;;;;;-0.91;91.46;100261.28;5096556;28;20028;-79
2021/01/26 09:06:46;;;;;;;41.35;25.55;;;;;;;-0.94;92.11;100267.16;5067948;28;20062;-79
2021/01/26 09:09:17;;;;;;;40.55;25.17;;;;;;;-0.95;92.04;100281.56;5096156;28;20016;-79
2021/01/26 09:11:45;;;;;;;39.70;25.13;;;;;;;-0.90;92.08;100276.56;5096161;28;20062;-79
2021/01/26 09:14:33;;;;;;;37.55;25.40;;;;;;;-0.73;91.67;100272.75;5096189;28;20024;-79
2021/01/26 09:17:28;;;;;;;35.92;24.05;;;;;;;-0.80;92.03;100275.97;5098282;28;20020;-79
2021/01/26 09:19:57;;;;;;;;;;;;;;;-0.77;91.87;100278.59;5096793;28;20100;-80
2021/01/26 09:22:29;;;;;;;35.92;23.48;;;;;;;-0.66;91.41;100281.38;5097262;28;19953;-79
2021/01/26 09:25:00;;;;;;;37.13;23.17;;;;;;;-0.65;91.33;100289.88;5104800;28;20024;-79
2021/01/26 09:27:27;;;;;;;37.05;25.08;;;;;;;-0.51;91.41;100296.13;5105763;28;20077;-79
2021/01/26 09:30:10;;;;;;;38.40;24.00;;;;;;;-0.19;90.43;100311.25;5105272;28;20100;-79
2021/01/26 09:32:45;;;;;;;39.40;23.42;;;;;;;0.55;87.40;100311.88;5096269;28;20036;-79
2021/01/26 09:35:30;;;;;;;34.05;22.65;;;;;;;0.67;86.76;100304.44;5099501;28;20024;-79
2021/01/26 09:38:06;;;;;;;38.08;23.55;;;;;;;0.40;87.46;100304.81;5096017;28;20381;-80
2021/01/26 09:40:33;;;;;;;38.67;24.40;;;;;;;0.46;87.61;100304.06;5097269;28;20468;-80
2021/01/26 09:43:17;;;;;;;36.90;25.90;;;;;;;0.65;87.17;100313.78;5098462;28;20028;-81
2021/01/26 09:45:43;;;;;;;37.15;23.73;;;;;;;0.90;85.48;100309.97;5098172;28;20030;-81
2021/01/26 09:48:14;;;;;;;37.97;25.50;;;;;;;0.78;86.63;100308.91;5098243;28;20051;-81
2021/01/26 09:50:39;;;;;;;38.00;25.63;;;;;;;0.76;86.15;100308.84;5096891;28;20017;-81
2021/01/26 09:53:05;;;;;;;38.65;25.42;;;;;;;0.87;86.11;100311.59;5096926;28;20035;-81
2021/01/26 09:55:31;;;;;;;37.13;24.33;;;;;;;1.39;84.18;100307.34;5096716;28;20027;-81
2021/01/26 09:57:58;;;;;;;39.58;25.52;;;;;;;1.25;84.46;100314.78;5104517;28;20024;-81
2021/01/26 10:00:28;;;;;;;36.67;24.52;;;;;;;1.15;85.09;100313.78;5099227;28;20055;-81
2021/01/26 10:02:56;;;;;;;36.92;24.20;;;;;;;0.96;85.49;100318.56;5098650;28;20047;-80
2021/01/26 10:05:26;;;;;;;36.90;24.70;;;;;;;0.73;86.98;100321.56;5098486;28;20055;-80
2021/01/26 10:08:07;;;;;;;35.22;23.70;;;;;;;0.41;87.70;100336.28;5097075;28;20012;-81
2021/01/26 10:10:32;;;;;;;35.15;23.83;;;;;;;0.16;89.13;100343.47;5097161;28;20079;-81
2021/01/26 10:13:30;;;;;;;34.90;21.90;;;;;;;0.00;89.15;100336.34;5097145;28;20051;-81
2021/01/26 10:15:56;;;;;;;38.75;25.02;;;;;;;0.29;89.60;100339.47;5096468;28;20028;-81
2021/01/26 10:18:26;;;;;;;35.80;24.60;;;;;;;0.48;88.77;100339.81;5096961;28;20051;-81
2021/01/26 10:20:54;;;;;;;36.13;24.80;;;;;;;0.25;89.20;100345.34;5096923;28;20380;-81
2021/01/26 10:23:36;;;;;;;35.67;24.30;;;;;;;0.43;88.64;100347.38;5098835;28;20044;-81
2021/01/26 10:26:09;;;;;;;37.00;24.38;;;;;;;0.72;87.20;100341.97;5098240;28;20056;-81
2021/01/26 10:28:35;;;;;;;43.08;23.70;;;;;;;0.84;86.71;100344.75;5097008;28;20046;-81
2021/01/26 10:31:00;;;;;;;39.17;24.70;;;;;;;0.86;85.92;100354.16;5098538;28;20357;-81
2021/01/26 10:33:43;;;;;;;37.88;23.90;;;;;;;0.51;88.35;100350.94;5097441;28;20024;-81
2021/01/26 10:36:27;;;;;;;37.55;22.52;;;;;;;0.61;88.71;100349.41;5098321;28;20043;-81
2021/01/26 10:38:54;;;;;;;38.57;22.57;;;;;;;0.51;88.37;100358.59;5097675;28;20102;-81
2021/01/26 10:41:36;;;;;;;33.45;22.33;;;;;;;0.54;88.17;100353.53;5095857;28;20020;-81
2021/01/26 10:44:06;;;;;;;31.67;20.52;;;;;;;0.41;88.48;100352.44;5096009;28;20020;-81
2021/01/26 10:46:57;;;;;;;31.80;20.33;;;;;;;0.58;87.34;100350.22;5096186;28;20046;-80
2021/01/26 10:49:30;;;;;;;32.05;21.08;;;;;;;0.76;87.12;100352.25;5096091;28;20484;-80
2021/01/26 10:52:00;;;;;;;30.55;19.98;;;;;;;0.98;86.73;100345.81;5096411;28;20035;-80
2021/01/26 10:54:26;;;;;;;32.33;19.17;;;;;;;1.04;85.69;100355.28;5098551;28;20024;-80
2021/01/26 10:56:51;;;;;;;31.55;18.20;;;;;;;1.28;84.94;100348.03;5098092;28;20016;-80
2021/01/26 10:59:18;;;;;;;33.60;19.77;;;;;;;1.43;84.94;100355.06;5102672;28;20028;-80
2021/01/26 11:01:44;;;;;;;27.70;18.05;;;;;;;1.22;85.42;100355.59;5104117;28;20071;-80
2021/01/26 11:04:10;;;;;;;31.63;19.58;;;;;;;1.22;85.87;100354.75;5097771;28;20472;-80
2021/01/26 11:06:35;;;;;;;28.25;18.52;;;;;;;0.85;86.85;100360.06;5096833;28;20408;-80
2021/01/26 11:09:01;;;;;;;33.45;21.20;;;;;;;0.90;87.60;100365.28;5097061;28;20030;-80
2021/01/26 11:11:29;;;;;;;31.67;19.75;;;;;;;0.80;87.02;100356.59;5098120;28;20031;-81
2021/01/26 11:13:55;;;;;;;27.50;18.17;;;;;;;0.78;88.00;100359.94;5096088;28;20492;-81
2021/01/26 11:16:22;;;;;;;28.80;18.92;;;;;;;1.20;86.06;100356.41;5097058;28;20020;-81
2021/01/26 11:18:47;;;;;;;30.05;20.42;;;;;;;0.91;87.44;100361.88;5098551;28;20391;-81
2021/01/26 11:21:13;;;;;;;28.40;19.40;;;;;;;2.14;82.11;100358.63;5101626;28;20024;-81
2021/01/26 11:23:40;;;;;;;28.33;19.77;;;;;;;1.83;83.65;100363.34;5101298;28;20030;-81
2021/01/26 11:26:09;;;;;;;31.92;20.45;;;;;;;1.45;85.11;100366.19;5099819;28;20087;-81
2021/01/26 11:28:34;;;;;;;30.77;20.00;;;;;;;1.43;85.16;100370.41;5099986;28;20472;-81
2021/01/26 11:31:00;;;;;;;29.30;18.63;;;;;;;1.66;84.18;100365.63;5101423;28;20050;-81
2021/01/26 11:33:27;;;;;;;29.15;18.48;;;;;;;2.53;81.73;100371.06;5101885;28;20032;-81
2021/01/26 11:35:52;;;;;;;28.02;18.42;;;;;;;2.46;81.65;100377.81;5100363;28;20027;-81
2021/01/26 11:38:17;;;;;;;26.13;18.00;;;;;;;1.85;84.18;100384.69;5102305;28;20028;-81
2021/01/26 11:40:43;;;;;;;26.05;17.52;;;;;;;1.97;83.38;100377.19;5100056;28;20031;-81
2021/01/26 11:43:08;;;;;;;24.95;16.55;;;;;;;2.05;83.35;100379.84;5100093;28;20035;-81
2021/01/26 11:45:37;;;;;;;24.35;17.13;;;;;;;4.48;74.17;100370.78;5099715;28;20048;-81
2021/01/26 11:48:06;;;;;;;22.67;15.05;;;;;;;4.72;71.42;100366.59;5101013;28;20456;-81